メインページ
METAR-TAF:

METAR-TAF

空港 :

エルサルバドル国際空港

エルサルバドル, エルサルバドル

緯度: 13-26N, 経度: 089-03W, 海抜: 25m

現時点の気象観測

当レポートは55分前の08:50(UTC)に作成
北/北東の風 3kt
気温 26°C
湿度 89%
気圧 1010 hPa
視程10km以上
高度3700ftの雲はほとんどない, 積乱雲.
高度7900ftの雲はほとんどない
小雨

METAR: MSLP 200850Z 02003KT 9999 -RA FEW037CB FEW079 26/24 Q1009 A2982 NOSIG CB TO N/NW

時間: 03:45 (09:45 UTC)

予報

当レポートは6時間20分前の03:25(UTC)に作成
予報は20日の 06時(UTC)から 21日の 06時(UTC)まで有効
西/北西の風 4kt
視程10km以上
高度2300ftの雲はほとんどない
高度7000ftの雲は散在している
確率 30% :
20日の 06時(UTC)から 20日の 09時(UTC)まで一時的に
20日の 1500時(UTC)から
南東の風 6kt
高度2300ftの雲は散在している
高度3700ftの雲はほとんどない, 積乱雲.
21日の 0000時(UTC)から
西/南西の風 4kt
視程10km以上
高度2300ftの雲はほとんどない
高度3700ftの雲はほとんどない, 積乱雲.
高度7000ftの雲は散在している

TAF: MSLP 200325Z 2006/2106 29004KT 9999 FEW023 SCT070 TX32/2019Z TN20/2011Z PROB30 TEMPO 2006/2009 RA FM201500 13006KT SCT023 FEW037CB FM210000 25004KT 9999 FEW023 FEW037CB SCT070

4,000以上の空港の気象観測と天気予報(METAR報とTAF報)

利用可能な観測所は地図上に黄色い丸と赤い丸で示す。

丸の上にカーソルを重ねると観測所名を参照できる。

次にクリックすると気象観測と天気予報を参照できる。

マップの切り替え:黒色「×」印の緑ボタンをクリックして拡大、「-」印の緑ボタンをクリックして縮小、緑色の三角印をクリックして隣りの地図に切り替え


METAR-TAF: